sensor_id;sensor_type;location;lat;lon;timestamp;P1;durP1;ratioP1;P2;durP2;ratioP2
5898;SDS011;2975;50.956;6.962;2024-02-21T00:02:03;10.63;;;4.23;;
5898;SDS011;2975;50.956;6.962;2024-02-21T00:04:29;11.33;;;4.93;;
5898;SDS011;2975;50.956;6.962;2024-02-21T00:06:55;13.90;;;4.30;;
5898;SDS011;2975;50.956;6.962;2024-02-21T00:09:20;11.30;;;4.43;;
5898;SDS011;2975;50.956;6.962;2024-02-21T00:11:46;9.87;;;4.37;;
5898;SDS011;2975;50.956;6.962;2024-02-21T00:14:12;9.80;;;4.17;;
5898;SDS011;2975;50.956;6.962;2024-02-21T00:16:38;14.60;;;4.30;;
5898;SDS011;2975;50.956;6.962;2024-02-21T00:19:03;10.43;;;4.43;;
5898;SDS011;2975;50.956;6.962;2024-02-21T00:21:29;11.87;;;4.07;;
5898;SDS011;2975;50.956;6.962;2024-02-21T00:23:55;12.03;;;4.43;;
5898;SDS011;2975;50.956;6.962;2024-02-21T00:26:22;11.30;;;4.20;;
5898;SDS011;2975;50.956;6.962;2024-02-21T00:28:48;13.57;;;4.57;;
5898;SDS011;2975;50.956;6.962;2024-02-21T00:31:15;12.27;;;5.00;;
5898;SDS011;2975;50.956;6.962;2024-02-21T00:33:40;14.23;;;4.30;;
5898;SDS011;2975;50.956;6.962;2024-02-21T00:36:06;14.43;;;4.50;;
5898;SDS011;2975;50.956;6.962;2024-02-21T00:38:32;13.93;;;4.53;;
5898;SDS011;2975;50.956;6.962;2024-02-21T00:40:58;8.97;;;4.23;;
5898;SDS011;2975;50.956;6.962;2024-02-21T00:43:23;12.60;;;4.70;;
5898;SDS011;2975;50.956;6.962;2024-02-21T00:45:49;12.50;;;4.00;;
5898;SDS011;2975;50.956;6.962;2024-02-21T00:48:15;10.40;;;4.43;;
5898;SDS011;2975;50.956;6.962;2024-02-21T00:50:41;11.67;;;3.90;;
5898;SDS011;2975;50.956;6.962;2024-02-21T00:53:07;8.63;;;4.33;;
5898;SDS011;2975;50.956;6.962;2024-02-21T00:55:33;10.27;;;4.20;;
5898;SDS011;2975;50.956;6.962;2024-02-21T00:57:59;11.90;;;4.73;;
5898;SDS011;2975;50.956;6.962;2024-02-21T01:00:24;11.20;;;4.37;;
5898;SDS011;2975;50.956;6.962;2024-02-21T01:02:50;12.20;;;4.70;;
5898;SDS011;2975;50.956;6.962;2024-02-21T01:05:15;12.63;;;4.37;;
5898;SDS011;2975;50.956;6.962;2024-02-21T01:07:41;13.83;;;4.97;;
5898;SDS011;2975;50.956;6.962;2024-02-21T01:10:07;13.27;;;4.40;;
5898;SDS011;2975;50.956;6.962;2024-02-21T01:12:33;12.80;;;4.73;;
5898;SDS011;2975;50.956;6.962;2024-02-21T01:14:59;11.13;;;4.37;;
5898;SDS011;2975;50.956;6.962;2024-02-21T01:17:24;10.57;;;4.07;;
5898;SDS011;2975;50.956;6.962;2024-02-21T01:19:50;13.57;;;4.07;;
5898;SDS011;2975;50.956;6.962;2024-02-21T01:22:15;10.90;;;4.43;;
5898;SDS011;2975;50.956;6.962;2024-02-21T01:24:41;10.70;;;4.13;;
5898;SDS011;2975;50.956;6.962;2024-02-21T01:27:07;9.90;;;3.83;;
5898;SDS011;2975;50.956;6.962;2024-02-21T01:29:32;13.53;;;4.33;;
5898;SDS011;2975;50.956;6.962;2024-02-21T01:31:58;14.70;;;4.63;;
5898;SDS011;2975;50.956;6.962;2024-02-21T01:34:24;15.43;;;5.27;;
5898;SDS011;2975;50.956;6.962;2024-02-21T01:36:50;10.93;;;4.70;;
5898;SDS011;2975;50.956;6.962;2024-02-21T01:39:15;15.47;;;5.47;;
5898;SDS011;2975;50.956;6.962;2024-02-21T01:41:41;9.27;;;4.43;;
5898;SDS011;2975;50.956;6.962;2024-02-21T01:44:06;13.90;;;5.33;;
5898;SDS011;2975;50.956;6.962;2024-02-21T01:46:32;14.73;;;4.80;;
5898;SDS011;2975;50.956;6.962;2024-02-21T01:48:58;9.03;;;4.50;;
5898;SDS011;2975;50.956;6.962;2024-02-21T01:51:25;14.10;;;4.70;;
5898;SDS011;2975;50.956;6.962;2024-02-21T01:53:51;12.30;;;4.50;;
5898;SDS011;2975;50.956;6.962;2024-02-21T01:56:18;12.97;;;4.87;;
5898;SDS011;2975;50.956;6.962;2024-02-21T01:58:44;12.93;;;5.27;;
5898;SDS011;2975;50.956;6.962;2024-02-21T02:01:12;10.83;;;5.00;;
5898;SDS011;2975;50.956;6.962;2024-02-21T02:03:38;16.77;;;5.93;;
5898;SDS011;2975;50.956;6.962;2024-02-21T02:06:04;13.27;;;4.23;;
5898;SDS011;2975;50.956;6.962;2024-02-21T02:08:31;9.77;;;4.33;;
5898;SDS011;2975;50.956;6.962;2024-02-21T02:10:58;11.30;;;4.60;;
5898;SDS011;2975;50.956;6.962;2024-02-21T02:13:24;20.70;;;5.30;;
5898;SDS011;2975;50.956;6.962;2024-02-21T02:15:50;13.47;;;5.07;;
5898;SDS011;2975;50.956;6.962;2024-02-21T02:18:16;12.63;;;5.10;;
5898;SDS011;2975;50.956;6.962;2024-02-21T02:20:46;12.23;;;5.27;;
5898;SDS011;2975;50.956;6.962;2024-02-21T02:25:46;12.33;;;4.77;;
5898;SDS011;2975;50.956;6.962;2024-02-21T02:28:18;10.33;;;4.97;;
5898;SDS011;2975;50.956;6.962;2024-02-21T02:30:44;14.53;;;4.47;;
5898;SDS011;2975;50.956;6.962;2024-02-21T02:33:10;8.87;;;4.87;;
5898;SDS011;2975;50.956;6.962;2024-02-21T02:35:36;11.33;;;4.50;;
5898;SDS011;2975;50.956;6.962;2024-02-21T02:38:02;13.70;;;4.90;;
5898;SDS011;2975;50.956;6.962;2024-02-21T02:40:28;12.27;;;5.07;;
5898;SDS011;2975;50.956;6.962;2024-02-21T02:42:54;11.03;;;4.57;;
5898;SDS011;2975;50.956;6.962;2024-02-21T02:45:20;13.63;;;5.57;;
5898;SDS011;2975;50.956;6.962;2024-02-21T02:47:48;11.57;;;4.93;;
5898;SDS011;2975;50.956;6.962;2024-02-21T02:50:14;14.90;;;4.63;;
5898;SDS011;2975;50.956;6.962;2024-02-21T02:52:40;11.20;;;4.43;;
5898;SDS011;2975;50.956;6.962;2024-02-21T02:55:05;10.10;;;4.03;;
5898;SDS011;2975;50.956;6.962;2024-02-21T02:57:32;11.67;;;4.47;;
5898;SDS011;2975;50.956;6.962;2024-02-21T02:59:57;9.23;;;4.50;;
5898;SDS011;2975;50.956;6.962;2024-02-21T03:02:23;13.60;;;4.97;;
5898;SDS011;2975;50.956;6.962;2024-02-21T03:04:49;9.47;;;4.40;;
5898;SDS011;2975;50.956;6.962;2024-02-21T03:07:15;13.03;;;4.27;;
5898;SDS011;2975;50.956;6.962;2024-02-21T03:09:41;11.80;;;4.13;;
5898;SDS011;2975;50.956;6.962;2024-02-21T03:12:10;10.53;;;4.47;;
5898;SDS011;2975;50.956;6.962;2024-02-21T03:14:36;13.20;;;5.43;;
5898;SDS011;2975;50.956;6.962;2024-02-21T03:17:03;13.47;;;4.20;;
5898;SDS011;2975;50.956;6.962;2024-02-21T03:19:30;11.47;;;4.50;;
5898;SDS011;2975;50.956;6.962;2024-02-21T03:21:55;8.10;;;4.13;;
5898;SDS011;2975;50.956;6.962;2024-02-21T03:24:21;12.20;;;4.77;;
5898;SDS011;2975;50.956;6.962;2024-02-21T03:26:47;13.33;;;4.70;;
5898;SDS011;2975;50.956;6.962;2024-02-21T03:29:14;9.63;;;3.53;;
5898;SDS011;2975;50.956;6.962;2024-02-21T03:31:40;12.47;;;3.93;;
5898;SDS011;2975;50.956;6.962;2024-02-21T03:34:07;10.03;;;4.53;;
5898;SDS011;2975;50.956;6.962;2024-02-21T03:36:33;9.10;;;3.87;;
5898;SDS011;2975;50.956;6.962;2024-02-21T03:38:59;9.13;;;3.80;;
5898;SDS011;2975;50.956;6.962;2024-02-21T03:41:24;11.23;;;4.00;;
5898;SDS011;2975;50.956;6.962;2024-02-21T03:43:51;12.23;;;4.10;;
5898;SDS011;2975;50.956;6.962;2024-02-21T03:46:16;8.80;;;3.97;;
5898;SDS011;2975;50.956;6.962;2024-02-21T03:48:43;10.67;;;4.00;;
5898;SDS011;2975;50.956;6.962;2024-02-21T03:51:10;12.63;;;3.80;;
5898;SDS011;2975;50.956;6.962;2024-02-21T03:53:35;6.23;;;3.60;;
5898;SDS011;2975;50.956;6.962;2024-02-21T03:56:01;10.07;;;3.83;;
5898;SDS011;2975;50.956;6.962;2024-02-21T03:58:29;8.90;;;3.47;;
5898;SDS011;2975;50.956;6.962;2024-02-21T04:00:55;12.77;;;3.97;;
5898;SDS011;2975;50.956;6.962;2024-02-21T04:03:20;9.03;;;4.37;;
5898;SDS011;2975;50.956;6.962;2024-02-21T04:05:46;9.30;;;3.83;;
5898;SDS011;2975;50.956;6.962;2024-02-21T04:08:13;15.63;;;4.73;;
5898;SDS011;2975;50.956;6.962;2024-02-21T04:10:39;8.57;;;3.83;;
5898;SDS011;2975;50.956;6.962;2024-02-21T04:13:06;11.93;;;4.17;;
5898;SDS011;2975;50.956;6.962;2024-02-21T04:15:32;15.03;;;4.10;;
5898;SDS011;2975;50.956;6.962;2024-02-21T04:17:57;10.20;;;3.60;;
5898;SDS011;2975;50.956;6.962;2024-02-21T04:20:23;12.67;;;3.90;;
5898;SDS011;2975;50.956;6.962;2024-02-21T04:22:48;13.00;;;4.20;;
5898;SDS011;2975;50.956;6.962;2024-02-21T04:25:14;8.80;;;3.97;;
5898;SDS011;2975;50.956;6.962;2024-02-21T04:27:41;12.83;;;4.50;;
5898;SDS011;2975;50.956;6.962;2024-02-21T04:30:07;11.07;;;4.00;;
5898;SDS011;2975;50.956;6.962;2024-02-21T04:32:34;8.90;;;4.03;;
5898;SDS011;2975;50.956;6.962;2024-02-21T04:35:00;9.33;;;4.37;;
5898;SDS011;2975;50.956;6.962;2024-02-21T04:37:25;10.53;;;4.00;;
5898;SDS011;2975;50.956;6.962;2024-02-21T04:39:52;13.17;;;4.40;;
5898;SDS011;2975;50.956;6.962;2024-02-21T04:42:18;9.50;;;4.47;;
5898;SDS011;2975;50.956;6.962;2024-02-21T04:44:43;10.83;;;4.30;;
5898;SDS011;2975;50.956;6.962;2024-02-21T04:47:09;9.60;;;3.80;;
5898;SDS011;2975;50.956;6.962;2024-02-21T04:49:35;13.80;;;4.43;;
5898;SDS011;2975;50.956;6.962;2024-02-21T04:52:00;8.73;;;3.87;;
5898;SDS011;2975;50.956;6.962;2024-02-21T04:54:27;9.60;;;3.50;;
5898;SDS011;2975;50.956;6.962;2024-02-21T04:56:52;10.77;;;4.00;;
5898;SDS011;2975;50.956;6.962;2024-02-21T04:59:18;9.27;;;3.90;;
5898;SDS011;2975;50.956;6.962;2024-02-21T05:01:43;8.80;;;3.73;;
5898;SDS011;2975;50.956;6.962;2024-02-21T05:04:09;11.97;;;3.40;;
5898;SDS011;2975;50.956;6.962;2024-02-21T05:06:38;11.40;;;4.60;;
5898;SDS011;2975;50.956;6.962;2024-02-21T05:09:04;10.13;;;3.90;;
5898;SDS011;2975;50.956;6.962;2024-02-21T05:11:30;9.87;;;3.73;;
5898;SDS011;2975;50.956;6.962;2024-02-21T05:13:57;10.63;;;4.30;;
5898;SDS011;2975;50.956;6.962;2024-02-21T05:16:23;9.10;;;3.47;;
5898;SDS011;2975;50.956;6.962;2024-02-21T05:18:48;9.10;;;3.33;;
5898;SDS011;2975;50.956;6.962;2024-02-21T05:21:14;12.33;;;4.23;;
5898;SDS011;2975;50.956;6.962;2024-02-21T05:23:40;7.50;;;3.10;;
5898;SDS011;2975;50.956;6.962;2024-02-21T05:26:05;9.37;;;4.10;;
5898;SDS011;2975;50.956;6.962;2024-02-21T05:28:33;14.87;;;4.00;;
5898;SDS011;2975;50.956;6.962;2024-02-21T05:30:58;7.37;;;3.60;;
5898;SDS011;2975;50.956;6.962;2024-02-21T05:33:24;7.57;;;3.07;;
5898;SDS011;2975;50.956;6.962;2024-02-21T05:35:50;7.23;;;3.83;;
5898;SDS011;2975;50.956;6.962;2024-02-21T05:38:16;7.17;;;3.43;;
5898;SDS011;2975;50.956;6.962;2024-02-21T05:40:42;11.73;;;3.80;;
5898;SDS011;2975;50.956;6.962;2024-02-21T05:43:10;6.93;;;3.53;;
5898;SDS011;2975;50.956;6.962;2024-02-21T05:45:36;11.50;;;3.63;;
5898;SDS011;2975;50.956;6.962;2024-02-21T05:48:02;9.83;;;4.00;;
5898;SDS011;2975;50.956;6.962;2024-02-21T05:50:29;7.93;;;4.07;;
5898;SDS011;2975;50.956;6.962;2024-02-21T05:52:54;10.97;;;3.70;;
5898;SDS011;2975;50.956;6.962;2024-02-21T05:55:21;9.77;;;4.10;;
5898;SDS011;2975;50.956;6.962;2024-02-21T05:57:47;9.63;;;3.57;;
5898;SDS011;2975;50.956;6.962;2024-02-21T06:00:13;8.67;;;3.60;;
5898;SDS011;2975;50.956;6.962;2024-02-21T06:02:39;8.97;;;3.70;;
5898;SDS011;2975;50.956;6.962;2024-02-21T06:05:05;12.67;;;4.00;;
5898;SDS011;2975;50.956;6.962;2024-02-21T06:07:32;10.47;;;4.30;;
5898;SDS011;2975;50.956;6.962;2024-02-21T06:09:58;11.47;;;3.97;;
5898;SDS011;2975;50.956;6.962;2024-02-21T06:12:24;8.23;;;3.80;;
5898;SDS011;2975;50.956;6.962;2024-02-21T06:14:50;9.43;;;3.40;;
5898;SDS011;2975;50.956;6.962;2024-02-21T06:17:16;8.40;;;3.87;;
5898;SDS011;2975;50.956;6.962;2024-02-21T06:19:42;16.83;;;4.27;;
5898;SDS011;2975;50.956;6.962;2024-02-21T06:22:09;9.57;;;4.13;;
5898;SDS011;2975;50.956;6.962;2024-02-21T06:24:35;11.67;;;4.77;;
5898;SDS011;2975;50.956;6.962;2024-02-21T06:27:01;8.67;;;4.03;;
5898;SDS011;2975;50.956;6.962;2024-02-21T06:29:28;11.77;;;4.27;;
5898;SDS011;2975;50.956;6.962;2024-02-21T06:31:53;11.20;;;4.07;;
5898;SDS011;2975;50.956;6.962;2024-02-21T06:34:19;9.57;;;3.37;;
5898;SDS011;2975;50.956;6.962;2024-02-21T06:36:45;12.20;;;3.50;;
5898;SDS011;2975;50.956;6.962;2024-02-21T06:39:10;10.30;;;3.70;;
5898;SDS011;2975;50.956;6.962;2024-02-21T06:41:36;12.67;;;3.80;;
5898;SDS011;2975;50.956;6.962;2024-02-21T06:44:02;12.43;;;4.47;;
5898;SDS011;2975;50.956;6.962;2024-02-21T06:46:28;8.63;;;4.07;;
5898;SDS011;2975;50.956;6.962;2024-02-21T06:48:54;12.23;;;4.70;;
5898;SDS011;2975;50.956;6.962;2024-02-21T06:51:25;10.17;;;4.03;;
5898;SDS011;2975;50.956;6.962;2024-02-21T06:53:51;13.33;;;4.27;;
5898;SDS011;2975;50.956;6.962;2024-02-21T06:56:18;11.50;;;4.00;;
5898;SDS011;2975;50.956;6.962;2024-02-21T06:58:44;8.03;;;3.93;;
5898;SDS011;2975;50.956;6.962;2024-02-21T07:01:10;10.57;;;3.77;;
5898;SDS011;2975;50.956;6.962;2024-02-21T07:03:37;11.13;;;3.50;;
5898;SDS011;2975;50.956;6.962;2024-02-21T07:06:03;9.13;;;3.77;;
5898;SDS011;2975;50.956;6.962;2024-02-21T07:08:29;8.40;;;3.90;;
5898;SDS011;2975;50.956;6.962;2024-02-21T07:10:56;6.47;;;3.10;;
5898;SDS011;2975;50.956;6.962;2024-02-21T07:13:22;8.20;;;3.60;;
5898;SDS011;2975;50.956;6.962;2024-02-21T07:15:48;10.30;;;3.83;;
5898;SDS011;2975;50.956;6.962;2024-02-21T07:18:13;8.77;;;3.60;;
5898;SDS011;2975;50.956;6.962;2024-02-21T07:20:39;8.00;;;3.37;;
5898;SDS011;2975;50.956;6.962;2024-02-21T07:23:06;6.20;;;3.00;;
5898;SDS011;2975;50.956;6.962;2024-02-21T07:25:33;9.83;;;3.30;;
5898;SDS011;2975;50.956;6.962;2024-02-21T07:27:58;7.20;;;3.17;;
5898;SDS011;2975;50.956;6.962;2024-02-21T07:30:24;12.33;;;2.73;;
5898;SDS011;2975;50.956;6.962;2024-02-21T07:32:50;7.90;;;3.10;;
5898;SDS011;2975;50.956;6.962;2024-02-21T07:35:17;7.90;;;4.23;;
5898;SDS011;2975;50.956;6.962;2024-02-21T07:37:43;7.70;;;2.80;;
5898;SDS011;2975;50.956;6.962;2024-02-21T07:40:15;11.73;;;3.10;;
5898;SDS011;2975;50.956;6.962;2024-02-21T07:42:41;10.73;;;3.07;;
5898;SDS011;2975;50.956;6.962;2024-02-21T07:45:07;6.13;;;3.07;;
5898;SDS011;2975;50.956;6.962;2024-02-21T07:47:33;7.10;;;2.93;;
5898;SDS011;2975;50.956;6.962;2024-02-21T07:49:59;8.50;;;2.90;;
5898;SDS011;2975;50.956;6.962;2024-02-21T07:52:25;7.40;;;2.83;;
5898;SDS011;2975;50.956;6.962;2024-02-21T07:54:51;6.33;;;2.70;;
5898;SDS011;2975;50.956;6.962;2024-02-21T07:57:16;10.50;;;3.00;;
5898;SDS011;2975;50.956;6.962;2024-02-21T07:59:42;7.53;;;3.10;;
5898;SDS011;2975;50.956;6.962;2024-02-21T08:02:08;10.60;;;3.23;;
5898;SDS011;2975;50.956;6.962;2024-02-21T08:04:34;11.00;;;3.80;;
5898;SDS011;2975;50.956;6.962;2024-02-21T08:07:00;8.80;;;3.17;;
5898;SDS011;2975;50.956;6.962;2024-02-21T08:09:29;9.60;;;3.27;;
5898;SDS011;2975;50.956;6.962;2024-02-21T08:11:55;8.17;;;3.67;;
5898;SDS011;2975;50.956;6.962;2024-02-21T08:14:21;8.80;;;3.87;;
5898;SDS011;2975;50.956;6.962;2024-02-21T08:16:47;10.03;;;4.00;;
5898;SDS011;2975;50.956;6.962;2024-02-21T08:19:13;7.97;;;2.83;;
5898;SDS011;2975;50.956;6.962;2024-02-21T08:21:39;6.83;;;3.00;;
5898;SDS011;2975;50.956;6.962;2024-02-21T08:24:04;8.40;;;3.00;;
5898;SDS011;2975;50.956;6.962;2024-02-21T08:26:30;10.40;;;3.30;;
5898;SDS011;2975;50.956;6.962;2024-02-21T08:28:56;12.07;;;3.33;;
5898;SDS011;2975;50.956;6.962;2024-02-21T08:31:25;7.70;;;2.83;;
5898;SDS011;2975;50.956;6.962;2024-02-21T08:33:58;7.77;;;2.90;;
5898;SDS011;2975;50.956;6.962;2024-02-21T08:36:30;12.23;;;3.70;;
5898;SDS011;2975;50.956;6.962;2024-02-21T08:38:57;7.83;;;3.50;;
5898;SDS011;2975;50.956;6.962;2024-02-21T08:41:23;10.63;;;3.20;;
5898;SDS011;2975;50.956;6.962;2024-02-21T08:43:50;10.90;;;3.80;;
5898;SDS011;2975;50.956;6.962;2024-02-21T08:46:16;10.10;;;3.10;;
5898;SDS011;2975;50.956;6.962;2024-02-21T08:48:44;12.13;;;3.80;;
5898;SDS011;2975;50.956;6.962;2024-02-21T08:51:13;9.67;;;2.87;;
5898;SDS011;2975;50.956;6.962;2024-02-21T08:53:39;5.60;;;2.77;;
5898;SDS011;2975;50.956;6.962;2024-02-21T08:56:05;11.17;;;3.67;;
5898;SDS011;2975;50.956;6.962;2024-02-21T08:58:34;12.57;;;3.50;;
5898;SDS011;2975;50.956;6.962;2024-02-21T09:01:01;7.37;;;2.77;;
5898;SDS011;2975;50.956;6.962;2024-02-21T09:03:28;10.90;;;3.00;;
5898;SDS011;2975;50.956;6.962;2024-02-21T09:05:56;9.30;;;3.20;;
5898;SDS011;2975;50.956;6.962;2024-02-21T09:08:21;10.70;;;3.33;;
5898;SDS011;2975;50.956;6.962;2024-02-21T09:10:47;9.90;;;3.53;;
5898;SDS011;2975;50.956;6.962;2024-02-21T09:13:15;8.00;;;3.13;;
5898;SDS011;2975;50.956;6.962;2024-02-21T09:15:40;8.03;;;2.87;;
5898;SDS011;2975;50.956;6.962;2024-02-21T09:18:07;11.70;;;3.20;;
5898;SDS011;2975;50.956;6.962;2024-02-21T09:20:32;9.67;;;2.93;;
5898;SDS011;2975;50.956;6.962;2024-02-21T09:22:58;10.07;;;2.97;;
5898;SDS011;2975;50.956;6.962;2024-02-21T09:25:24;9.67;;;3.00;;
5898;SDS011;2975;50.956;6.962;2024-02-21T09:27:50;7.03;;;2.70;;
5898;SDS011;2975;50.956;6.962;2024-02-21T09:30:20;13.37;;;4.00;;
5898;SDS011;2975;50.956;6.962;2024-02-21T09:32:47;8.73;;;3.07;;
5898;SDS011;2975;50.956;6.962;2024-02-21T09:35:13;8.60;;;3.10;;
5898;SDS011;2975;50.956;6.962;2024-02-21T09:37:39;7.67;;;2.60;;
5898;SDS011;2975;50.956;6.962;2024-02-21T09:40:05;8.63;;;3.53;;
5898;SDS011;2975;50.956;6.962;2024-02-21T09:42:36;7.07;;;2.47;;
5898;SDS011;2975;50.956;6.962;2024-02-21T09:45:15;9.43;;;2.57;;
5898;SDS011;2975;50.956;6.962;2024-02-21T09:50:24;8.47;;;2.90;;
5898;SDS011;2975;50.956;6.962;2024-02-21T09:52:51;7.37;;;3.00;;
5898;SDS011;2975;50.956;6.962;2024-02-21T09:55:19;7.83;;;3.07;;
5898;SDS011;2975;50.956;6.962;2024-02-21T09:57:46;8.93;;;2.73;;
5898;SDS011;2975;50.956;6.962;2024-02-21T10:00:12;9.33;;;2.90;;
5898;SDS011;2975;50.956;6.962;2024-02-21T10:02:46;6.67;;;2.63;;
5898;SDS011;2975;50.956;6.962;2024-02-21T10:05:13;7.33;;;2.57;;
5898;SDS011;2975;50.956;6.962;2024-02-21T10:07:39;11.23;;;2.97;;
5898;SDS011;2975;50.956;6.962;2024-02-21T10:10:04;4.27;;;2.27;;
5898;SDS011;2975;50.956;6.962;2024-02-21T10:12:31;5.87;;;2.30;;
5898;SDS011;2975;50.956;6.962;2024-02-21T10:15:03;6.67;;;2.53;;
5898;SDS011;2975;50.956;6.962;2024-02-21T10:17:32;6.37;;;2.40;;
5898;SDS011;2975;50.956;6.962;2024-02-21T10:20:10;9.27;;;2.90;;
5898;SDS011;2975;50.956;6.962;2024-02-21T10:22:37;10.63;;;5.37;;
5898;SDS011;2975;50.956;6.962;2024-02-21T10:25:13;7.37;;;2.63;;
5898;SDS011;2975;50.956;6.962;2024-02-21T10:27:39;6.13;;;2.50;;
5898;SDS011;2975;50.956;6.962;2024-02-21T10:30:07;9.33;;;3.10;;
5898;SDS011;2975;50.956;6.962;2024-02-21T10:32:33;6.67;;;2.57;;
5898;SDS011;2975;50.956;6.962;2024-02-21T10:35:04;8.27;;;2.63;;
5898;SDS011;2975;50.956;6.962;2024-02-21T10:37:30;6.43;;;2.33;;
5898;SDS011;2975;50.956;6.962;2024-02-21T10:39:57;8.43;;;2.50;;
5898;SDS011;2975;50.956;6.962;2024-02-21T10:42:23;2.80;;;1.70;;
5898;SDS011;2975;50.956;6.962;2024-02-21T10:44:58;4.13;;;2.07;;
5898;SDS011;2975;50.956;6.962;2024-02-21T10:47:29;5.30;;;2.30;;
5898;SDS011;2975;50.956;6.962;2024-02-21T10:49:57;7.63;;;2.40;;
5898;SDS011;2975;50.956;6.962;2024-02-21T10:55:09;6.57;;;2.53;;
5898;SDS011;2975;50.956;6.962;2024-02-21T10:57:38;8.87;;;2.87;;
5898;SDS011;2975;50.956;6.962;2024-02-21T11:00:04;7.50;;;2.60;;
5898;SDS011;2975;50.956;6.962;2024-02-21T11:02:33;8.33;;;2.37;;
5898;SDS011;2975;50.956;6.962;2024-02-21T11:04:59;12.00;;;2.63;;
5898;SDS011;2975;50.956;6.962;2024-02-21T11:07:28;6.53;;;2.00;;
5898;SDS011;2975;50.956;6.962;2024-02-21T11:09:55;6.43;;;2.67;;
5898;SDS011;2975;50.956;6.962;2024-02-21T11:12:22;5.37;;;2.20;;
5898;SDS011;2975;50.956;6.962;2024-02-21T11:14:48;7.07;;;2.60;;
5898;SDS011;2975;50.956;6.962;2024-02-21T11:17:17;11.17;;;2.70;;
5898;SDS011;2975;50.956;6.962;2024-02-21T11:19:44;5.47;;;2.20;;
5898;SDS011;2975;50.956;6.962;2024-02-21T11:22:19;7.77;;;2.30;;
5898;SDS011;2975;50.956;6.962;2024-02-21T11:24:49;7.63;;;2.10;;
5898;SDS011;2975;50.956;6.962;2024-02-21T11:27:16;5.47;;;1.90;;
5898;SDS011;2975;50.956;6.962;2024-02-21T11:29:57;7.00;;;2.20;;
5898;SDS011;2975;50.956;6.962;2024-02-21T11:32:23;9.97;;;2.00;;
5898;SDS011;2975;50.956;6.962;2024-02-21T11:34:57;5.50;;;2.03;;
5898;SDS011;2975;50.956;6.962;2024-02-21T11:37:28;7.53;;;2.30;;
5898;SDS011;2975;50.956;6.962;2024-02-21T11:39:55;11.07;;;2.13;;
5898;SDS011;2975;50.956;6.962;2024-02-21T11:42:21;5.33;;;1.93;;
5898;SDS011;2975;50.956;6.962;2024-02-21T11:44:48;6.60;;;2.40;;
5898;SDS011;2975;50.956;6.962;2024-02-21T11:47:14;5.80;;;1.90;;
5898;SDS011;2975;50.956;6.962;2024-02-21T11:49:45;4.87;;;2.00;;
5898;SDS011;2975;50.956;6.962;2024-02-21T11:52:15;6.00;;;1.93;;
5898;SDS011;2975;50.956;6.962;2024-02-21T11:54:43;4.30;;;1.73;;
5898;SDS011;2975;50.956;6.962;2024-02-21T11:57:10;8.23;;;2.43;;
5898;SDS011;2975;50.956;6.962;2024-02-21T11:59:39;6.80;;;2.43;;
5898;SDS011;2975;50.956;6.962;2024-02-21T12:02:05;8.60;;;2.07;;
5898;SDS011;2975;50.956;6.962;2024-02-21T12:04:32;8.20;;;2.57;;
5898;SDS011;2975;50.956;6.962;2024-02-21T12:07:01;6.63;;;2.13;;
5898;SDS011;2975;50.956;6.962;2024-02-21T12:09:29;4.97;;;2.20;;
5898;SDS011;2975;50.956;6.962;2024-02-21T12:12:02;5.60;;;1.97;;
5898;SDS011;2975;50.956;6.962;2024-02-21T12:14:29;5.67;;;2.30;;
5898;SDS011;2975;50.956;6.962;2024-02-21T12:16:56;6.83;;;2.47;;
5898;SDS011;2975;50.956;6.962;2024-02-21T12:19:22;8.17;;;2.33;;
5898;SDS011;2975;50.956;6.962;2024-02-21T12:21:48;8.70;;;2.43;;
5898;SDS011;2975;50.956;6.962;2024-02-21T12:24:26;6.33;;;2.40;;
5898;SDS011;2975;50.956;6.962;2024-02-21T12:26:54;5.53;;;2.00;;
5898;SDS011;2975;50.956;6.962;2024-02-21T12:29:28;4.90;;;1.83;;
5898;SDS011;2975;50.956;6.962;2024-02-21T12:31:56;9.33;;;2.93;;
5898;SDS011;2975;50.956;6.962;2024-02-21T12:34:22;5.17;;;2.37;;
5898;SDS011;2975;50.956;6.962;2024-02-21T12:36:49;4.07;;;1.93;;
5898;SDS011;2975;50.956;6.962;2024-02-21T12:39:14;8.13;;;2.47;;
5898;SDS011;2975;50.956;6.962;2024-02-21T12:41:41;6.00;;;2.40;;
5898;SDS011;2975;50.956;6.962;2024-02-21T12:44:09;7.03;;;2.20;;
5898;SDS011;2975;50.956;6.962;2024-02-21T12:46:38;5.57;;;2.43;;
5898;SDS011;2975;50.956;6.962;2024-02-21T12:49:04;9.10;;;2.20;;
5898;SDS011;2975;50.956;6.962;2024-02-21T12:51:32;6.10;;;2.40;;
5898;SDS011;2975;50.956;6.962;2024-02-21T12:53:58;6.20;;;2.30;;
5898;SDS011;2975;50.956;6.962;2024-02-21T12:56:24;7.07;;;2.60;;
5898;SDS011;2975;50.956;6.962;2024-02-21T12:58:52;4.87;;;2.10;;
5898;SDS011;2975;50.956;6.962;2024-02-21T13:01:19;5.00;;;2.30;;
5898;SDS011;2975;50.956;6.962;2024-02-21T13:03:46;6.80;;;2.37;;
5898;SDS011;2975;50.956;6.962;2024-02-21T13:06:12;5.63;;;2.30;;
5898;SDS011;2975;50.956;6.962;2024-02-21T13:08:38;7.77;;;2.60;;
5898;SDS011;2975;50.956;6.962;2024-02-21T13:11:04;8.90;;;2.33;;
5898;SDS011;2975;50.956;6.962;2024-02-21T13:13:30;7.07;;;2.30;;
5898;SDS011;2975;50.956;6.962;2024-02-21T13:15:57;8.60;;;2.80;;
5898;SDS011;2975;50.956;6.962;2024-02-21T13:18:23;5.50;;;2.33;;
5898;SDS011;2975;50.956;6.962;2024-02-21T13:20:48;6.83;;;2.17;;
5898;SDS011;2975;50.956;6.962;2024-02-21T13:23:15;4.93;;;1.90;;
5898;SDS011;2975;50.956;6.962;2024-02-21T13:25:41;6.70;;;2.50;;
5898;SDS011;2975;50.956;6.962;2024-02-21T13:28:07;3.47;;;1.70;;
5898;SDS011;2975;50.956;6.962;2024-02-21T13:30:36;7.47;;;2.07;;
5898;SDS011;2975;50.956;6.962;2024-02-21T13:33:01;4.00;;;1.80;;
5898;SDS011;2975;50.956;6.962;2024-02-21T13:35:28;9.27;;;2.17;;
5898;SDS011;2975;50.956;6.962;2024-02-21T13:37:54;3.83;;;2.03;;
5898;SDS011;2975;50.956;6.962;2024-02-21T13:40:19;3.77;;;1.70;;
5898;SDS011;2975;50.956;6.962;2024-02-21T13:42:45;7.67;;;2.17;;
5898;SDS011;2975;50.956;6.962;2024-02-21T13:45:10;5.83;;;2.33;;
5898;SDS011;2975;50.956;6.962;2024-02-21T13:47:36;5.13;;;1.87;;
5898;SDS011;2975;50.956;6.962;2024-02-21T13:50:03;6.17;;;2.17;;
5898;SDS011;2975;50.956;6.962;2024-02-21T13:52:30;4.37;;;1.90;;
5898;SDS011;2975;50.956;6.962;2024-02-21T13:54:56;4.73;;;1.70;;
5898;SDS011;2975;50.956;6.962;2024-02-21T13:57:23;4.73;;;1.90;;
5898;SDS011;2975;50.956;6.962;2024-02-21T13:59:50;5.70;;;2.07;;
5898;SDS011;2975;50.956;6.962;2024-02-21T14:02:16;7.67;;;2.07;;
5898;SDS011;2975;50.956;6.962;2024-02-21T14:04:42;7.63;;;2.27;;
5898;SDS011;2975;50.956;6.962;2024-02-21T14:07:09;6.23;;;1.83;;
5898;SDS011;2975;50.956;6.962;2024-02-21T14:09:34;10.57;;;2.63;;
5898;SDS011;2975;50.956;6.962;2024-02-21T14:12:00;10.07;;;2.00;;
5898;SDS011;2975;50.956;6.962;2024-02-21T14:14:26;4.30;;;2.40;;
5898;SDS011;2975;50.956;6.962;2024-02-21T14:16:51;5.20;;;1.93;;
5898;SDS011;2975;50.956;6.962;2024-02-21T14:19:20;6.43;;;1.83;;
5898;SDS011;2975;50.956;6.962;2024-02-21T14:21:46;11.87;;;2.43;;
5898;SDS011;2975;50.956;6.962;2024-02-21T14:24:11;4.57;;;2.03;;
5898;SDS011;2975;50.956;6.962;2024-02-21T14:26:37;7.47;;;2.40;;
5898;SDS011;2975;50.956;6.962;2024-02-21T14:29:04;8.07;;;3.27;;
5898;SDS011;2975;50.956;6.962;2024-02-21T14:31:33;6.97;;;2.20;;
5898;SDS011;2975;50.956;6.962;2024-02-21T14:33:59;7.33;;;2.10;;
5898;SDS011;2975;50.956;6.962;2024-02-21T14:36:26;5.03;;;1.90;;
5898;SDS011;2975;50.956;6.962;2024-02-21T14:38:51;8.37;;;2.27;;
5898;SDS011;2975;50.956;6.962;2024-02-21T14:41:17;6.93;;;2.03;;
5898;SDS011;2975;50.956;6.962;2024-02-21T14:43:44;5.30;;;2.63;;
5898;SDS011;2975;50.956;6.962;2024-02-21T14:46:11;7.80;;;2.90;;
5898;SDS011;2975;50.956;6.962;2024-02-21T14:48:37;6.87;;;2.27;;
5898;SDS011;2975;50.956;6.962;2024-02-21T14:51:04;4.97;;;2.17;;
5898;SDS011;2975;50.956;6.962;2024-02-21T14:53:30;5.83;;;1.63;;
5898;SDS011;2975;50.956;6.962;2024-02-21T14:55:56;5.83;;;1.83;;
5898;SDS011;2975;50.956;6.962;2024-02-21T14:58:24;7.33;;;2.30;;
5898;SDS011;2975;50.956;6.962;2024-02-21T15:00:49;6.17;;;1.93;;
5898;SDS011;2975;50.956;6.962;2024-02-21T15:03:16;5.07;;;1.77;;
5898;SDS011;2975;50.956;6.962;2024-02-21T15:05:46;5.70;;;1.60;;
5898;SDS011;2975;50.956;6.962;2024-02-21T15:08:12;5.33;;;1.50;;
5898;SDS011;2975;50.956;6.962;2024-02-21T15:10:42;3.43;;;1.60;;
5898;SDS011;2975;50.956;6.962;2024-02-21T15:13:09;6.97;;;1.87;;
5898;SDS011;2975;50.956;6.962;2024-02-21T15:15:35;6.83;;;1.87;;